Time;durP1;ratioP1;P1;durP2;ratioP2;P2;SDS_P1;SDS_P2;PMS_P1;PMS_P2;Temp;Humidity;BMP_temperature;BMP_pressure;BME280_temperature;BME280_humidity;BME280_pressure;Samples;Min_cycle;Max_cycle;Signal;HPM_P1;HPM_P2
2021/05/26 00:01:49;;;;;;;8.03;7.23;;;9.50;98.30;;;;;;4082243;29;20504;-85
2021/05/26 00:03:54;;;;;;;7.07;5.50;;;9.50;98.30;;;;;;4082970;29;20478;-85
2021/05/26 00:06:01;;;;;;;13.43;6.97;;;9.50;98.30;;;;;;4079410;29;20535;-87
2021/05/26 00:08:04;;;;;;;7.17;6.43;;;9.50;98.30;;;;;;4081362;29;20557;-86
2021/05/26 00:10:08;;;;;;;7.20;6.10;;;9.50;98.30;;;;;;4081724;29;20560;-87
2021/05/26 00:12:12;;;;;;;8.00;7.00;;;9.50;98.30;;;;;;4082329;29;20532;-84
2021/05/26 00:14:15;;;;;;;7.50;6.53;;;9.50;98.30;;;;;;4082819;29;20512;-83
2021/05/26 00:16:17;;;;;;;7.37;6.27;;;9.50;98.30;;;;;;4080523;29;20538;-84
2021/05/26 00:18:20;;;;;;;7.03;6.27;;;9.50;98.30;;;;;;4081076;29;20852;-84
2021/05/26 00:20:23;;;;;;;7.70;6.33;;;9.60;98.30;;;;;;4078770;29;20524;-84
2021/05/26 00:22:26;;;;;;;6.77;6.10;;;9.60;98.30;;;;;;4081402;29;20485;-85
2021/05/26 00:24:28;;;;;;;8.93;6.17;;;9.50;98.30;;;;;;4081082;29;20456;-84
2021/05/26 00:26:31;;;;;;;8.00;6.53;;;9.50;98.30;;;;;;4081287;29;20505;-84
2021/05/26 00:28:35;;;;;;;6.90;5.77;;;9.50;98.30;;;;;;4081278;29;20808;-85
2021/05/26 00:30:44;;;;;;;6.40;5.80;;;9.50;98.30;;;;;;4080896;29;20511;-85
2021/05/26 00:32:46;;;;;;;6.47;5.87;;;9.60;98.30;;;;;;4079880;29;22238;-84
2021/05/26 00:34:49;;;;;;;6.50;5.47;;;9.60;98.30;;;;;;4083348;29;20484;-84
2021/05/26 00:36:51;;;;;;;6.10;5.50;;;9.60;98.30;;;;;;4080934;29;20481;-85
2021/05/26 00:38:54;;;;;;;6.90;5.90;;;9.60;98.30;;;;;;4080876;29;20518;-85
2021/05/26 00:40:56;;;;;;;6.20;5.60;;;9.60;98.30;;;;;;4084263;29;20482;-85
2021/05/26 00:42:59;;;;;;;5.97;5.37;;;9.60;98.30;;;;;;4100247;29;20449;-84
2021/05/26 00:45:02;;;;;;;7.00;5.13;;;9.60;98.30;;;;;;4098808;29;20535;-84
2021/05/26 00:47:05;;;;;;;7.30;5.40;;;9.60;98.30;;;;;;4099521;28;20477;-85
2021/05/26 00:49:08;;;;;;;7.50;6.33;;;9.60;98.30;;;;;;4099166;29;20474;-84
2021/05/26 00:51:11;;;;;;;6.87;6.17;;;9.60;98.30;;;;;;4098966;29;20498;-85
2021/05/26 00:53:15;;;;;;;7.40;6.70;;;9.60;98.30;;;;;;4100881;29;20484;-85
2021/05/26 00:55:19;;;;;;;6.73;5.97;;;9.70;98.30;;;;;;4096283;28;20469;-86
2021/05/26 00:57:22;;;;;;;7.90;5.77;;;9.70;98.30;;;;;;4080196;29;20976;-85
2021/05/26 00:59:24;;;;;;;6.80;6.10;;;9.70;98.30;;;;;;4081002;29;20470;-85
2021/05/26 01:01:28;;;;;;;7.03;6.30;;;9.70;98.30;;;;;;4081432;29;20482;-84
2021/05/26 01:03:32;;;;;;;8.20;7.40;;;9.70;98.30;;;;;;4090360;29;20453;-85
2021/05/26 01:05:34;;;;;;;7.87;7.07;;;9.70;98.30;;;;;;4079676;29;20479;-84
2021/05/26 01:07:39;;;;;;;7.13;6.43;;;9.70;98.30;;;;;;4079361;29;20552;-85
2021/05/26 01:09:42;;;;;;;7.13;6.43;;;9.70;98.30;;;;;;4080904;29;20849;-86
2021/05/26 01:11:44;;;;;;;7.80;6.20;;;9.70;98.30;;;;;;4097504;29;20553;-83
2021/05/26 01:13:48;;;;;;;9.50;7.70;;;9.70;98.30;;;;;;4097877;29;20470;-84
2021/05/26 01:15:50;;;;;;;9.60;8.60;;;9.60;98.30;;;;;;4096989;29;20461;-84
2021/05/26 01:17:55;;;;;;;9.30;8.10;;;9.60;98.30;;;;;;4084142;29;20500;-84
2021/05/26 01:19:58;;;;;;;8.20;7.40;;;9.60;98.30;;;;;;4081208;29;20557;-84
2021/05/26 01:22:01;;;;;;;8.70;7.80;;;9.70;98.30;;;;;;4082288;29;20492;-84
2021/05/26 01:24:05;;;;;;;9.73;7.73;;;9.70;98.30;;;;;;4082442;29;20492;-84
2021/05/26 01:26:08;;;;;;;10.00;8.57;;;9.70;98.30;;;;;;4081560;29;20509;-84
2021/05/26 01:28:13;;;;;;;10.00;8.23;;;9.70;98.30;;;;;;4079889;29;20617;-84
2021/05/26 01:30:17;;;;;;;12.50;8.80;;;9.60;98.30;;;;;;4079666;29;20469;-85
2021/05/26 01:32:20;;;;;;;9.00;8.10;;;9.60;98.30;;;;;;4080805;29;20493;-86
2021/05/26 01:34:22;;;;;;;10.07;8.30;;;9.60;98.30;;;;;;4078617;29;20469;-85
2021/05/26 01:36:25;;;;;;;9.77;8.33;;;9.60;98.30;;;;;;4078253;29;20456;-86
2021/05/26 01:38:28;;;;;;;10.63;9.00;;;9.70;98.30;;;;;;4079048;29;20505;-86
2021/05/26 01:40:31;;;;;;;10.63;8.70;;;9.70;98.30;;;;;;4079558;29;20994;-86
2021/05/26 01:42:34;;;;;;;9.30;8.27;;;9.70;98.30;;;;;;4081469;29;20992;-84
2021/05/26 01:44:37;;;;;;;9.30;7.93;;;9.70;98.30;;;;;;4079062;29;20544;-85
2021/05/26 01:46:41;;;;;;;9.90;8.50;;;9.70;98.30;;;;;;4078776;29;20482;-84
2021/05/26 01:48:46;;;;;;;11.50;8.97;;;9.70;98.30;;;;;;4079078;29;21131;-84
2021/05/26 01:50:49;;;;;;;10.60;9.10;;;9.70;98.30;;;;;;4080173;29;20944;-84
2021/05/26 01:53:03;;;;;;;9.37;8.30;;;9.70;98.30;;;;;;4082531;29;21015;-84
2021/05/26 01:55:08;;;;;;;10.47;9.37;;;9.70;98.30;;;;;;4074171;29;20503;-85
2021/05/26 01:57:11;;;;;;;9.83;8.83;;;9.70;98.30;;;;;;4079452;29;20474;-86
2021/05/26 01:59:17;;;;;;;10.13;9.03;;;9.70;98.30;;;;;;4079822;29;20560;-85
2021/05/26 02:01:21;;;;;;;11.33;8.07;;;9.70;98.30;;;;;;4081076;29;20500;-84
2021/05/26 02:03:23;;;;;;;14.93;10.77;;;9.70;98.30;;;;;;4079614;29;20565;-84
2021/05/26 02:05:26;;;;;;;11.23;9.70;;;9.70;98.30;;;;;;4078778;29;21047;-84
2021/05/26 02:07:28;;;;;;;14.30;11.20;;;9.70;98.30;;;;;;4079760;29;20525;-85
2021/05/26 02:09:31;;;;;;;14.20;10.73;;;9.70;98.30;;;;;;4080235;29;20471;-85
2021/05/26 02:13:58;;;;;;;12.23;10.50;;;9.70;98.30;;;;;;4057233;29;20548;-86
2021/05/26 02:16:01;;;;;;;12.40;10.80;;;9.70;98.30;;;;;;4079008;29;20470;-84
2021/05/26 02:18:04;;;;;;;14.40;11.10;;;9.70;98.30;;;;;;4079992;29;20508;-84
2021/05/26 02:20:09;;;;;;;15.03;11.33;;;9.70;98.30;;;;;;4079728;29;20510;-85
2021/05/26 02:22:12;;;;;;;13.83;11.13;;;9.70;98.30;;;;;;4080888;29;20490;-84
2021/05/26 02:24:14;;;;;;;14.77;12.17;;;9.70;98.30;;;;;;4081284;29;20529;-85
2021/05/26 02:26:17;;;;;;;13.80;10.90;;;9.80;98.30;;;;;;4081281;29;20474;-85
2021/05/26 02:28:20;;;;;;;13.17;10.90;;;9.80;98.30;;;;;;4079099;29;20533;-85
2021/05/26 02:30:24;;;;;;;14.67;11.07;;;9.80;98.30;;;;;;4079776;29;20495;-85
2021/05/26 02:32:26;;;;;;;14.50;12.00;;;9.80;98.30;;;;;;4081714;29;20590;-85
2021/05/26 02:34:29;;;;;;;15.17;11.00;;;9.80;98.30;;;;;;4081164;29;20472;-84
2021/05/26 02:36:31;;;;;;;14.00;11.80;;;9.80;98.30;;;;;;4080190;29;21072;-86
2021/05/26 02:38:34;;;;;;;15.30;12.03;;;9.80;98.30;;;;;;4078950;29;20556;-86
2021/05/26 02:40:37;;;;;;;14.30;12.00;;;9.80;98.30;;;;;;4079663;29;20474;-84
2021/05/26 02:42:39;;;;;;;12.50;10.67;;;9.80;98.30;;;;;;4083584;29;20478;-85
2021/05/26 02:44:43;;;;;;;14.87;12.00;;;9.70;98.30;;;;;;4081402;29;20805;-85
2021/05/26 02:46:45;;;;;;;18.00;11.97;;;9.70;98.30;;;;;;4082444;29;20465;-85
2021/05/26 02:48:48;;;;;;;15.00;12.00;;;9.80;98.30;;;;;;4082440;29;20600;-85
2021/05/26 02:50:50;;;;;;;13.43;11.13;;;9.80;98.30;;;;;;4083457;29;20886;-83
2021/05/26 02:52:53;;;;;;;14.57;12.13;;;9.80;98.30;;;;;;4085143;29;20556;-84
2021/05/26 02:54:56;;;;;;;17.00;13.00;;;9.80;98.30;;;;;;4083598;29;20912;-84
2021/05/26 02:56:58;;;;;;;15.00;11.63;;;9.80;98.30;;;;;;4082837;29;21032;-84
2021/05/26 02:59:03;;;;;;;18.67;12.67;;;9.80;98.30;;;;;;4083639;29;20480;-85
2021/05/26 03:01:07;;;;;;;15.13;12.57;;;9.80;98.30;;;;;;4083466;29;20557;-85
2021/05/26 03:03:09;;;;;;;16.17;12.23;;;9.90;98.30;;;;;;4085357;29;20504;-84
2021/05/26 03:05:13;;;;;;;14.57;12.17;;;9.90;98.30;;;;;;4083032;29;21006;-83
2021/05/26 03:07:17;;;;;;;17.30;13.07;;;9.90;98.30;;;;;;4083461;29;20488;-84
2021/05/26 03:09:21;;;;;;;15.60;12.87;;;9.90;98.30;;;;;;4082633;29;20817;-85
2021/05/26 03:11:24;;;;;;;14.73;12.10;;;9.90;98.30;;;;;;4083224;29;20924;-85
2021/05/26 03:13:27;;;;;;;15.50;11.77;;;9.90;98.30;;;;;;4083966;29;20466;-84
2021/05/26 03:15:30;;;;;;;17.43;12.10;;;9.90;98.30;;;;;;4081552;29;20486;-84
2021/05/26 03:17:34;;;;;;;14.57;12.30;;;9.90;98.30;;;;;;4083297;29;20473;-84
2021/05/26 03:19:36;;;;;;;18.17;12.47;;;9.90;98.30;;;;;;4083231;29;20470;-85
2021/05/26 03:21:40;;;;;;;15.63;12.43;;;9.90;98.30;;;;;;4084181;29;20584;-83
2021/05/26 03:23:43;;;;;;;16.10;12.70;;;9.90;98.30;;;;;;4085761;29;20611;-84
2021/05/26 03:25:47;;;;;;;13.13;11.37;;;10.00;98.30;;;;;;4079181;29;20512;-85
2021/05/26 03:27:49;;;;;;;13.40;10.70;;;9.90;98.30;;;;;;4083241;29;20489;-84
2021/05/26 03:29:52;;;;;;;13.77;11.50;;;9.90;98.30;;;;;;4083084;29;20497;-84
2021/05/26 03:31:54;;;;;;;15.20;12.00;;;9.90;98.30;;;;;;4083588;29;20573;-84
2021/05/26 03:33:58;;;;;;;16.00;11.47;;;9.90;98.30;;;;;;4084167;29;20476;-83
2021/05/26 03:36:04;;;;;;;12.60;10.93;;;9.90;98.30;;;;;;4084622;29;20473;-83
2021/05/26 03:38:08;;;;;;;12.87;10.93;;;10.00;98.30;;;;;;4081906;29;20502;-84
2021/05/26 03:40:12;;;;;;;14.53;10.60;;;9.90;98.30;;;;;;4083375;29;21041;-84
2021/05/26 03:42:15;;;;;;;12.30;10.87;;;9.90;98.30;;;;;;4083525;29;20573;-84
2021/05/26 03:44:18;;;;;;;11.63;10.10;;;9.80;98.30;;;;;;4082379;29;20465;-86
2021/05/26 03:46:20;;;;;;;14.83;10.13;;;9.90;98.30;;;;;;4082942;29;20477;-84
2021/05/26 03:48:23;;;;;;;11.00;9.33;;;9.90;98.30;;;;;;4082755;29;20605;-85
2021/05/26 03:50:28;;;;;;;13.10;10.53;;;9.80;98.30;;;;;;4082921;29;20470;-84
2021/05/26 03:52:31;;;;;;;12.10;10.10;;;9.80;98.30;;;;;;4084625;29;20473;-85
2021/05/26 03:54:34;;;;;;;11.00;9.63;;;9.80;98.30;;;;;;4082467;29;20470;-84
2021/05/26 03:56:37;;;;;;;15.30;10.17;;;9.80;98.30;;;;;;4083047;29;20447;-83
2021/05/26 03:58:39;;;;;;;13.50;9.40;;;9.80;98.30;;;;;;4082223;29;20534;-83
2021/05/26 04:00:42;;;;;;;14.33;9.63;;;9.80;98.30;;;;;;4082414;29;21018;-83
2021/05/26 04:02:45;;;;;;;14.10;9.07;;;9.90;98.30;;;;;;4084844;29;21183;-84
2021/05/26 04:04:48;;;;;;;10.43;8.40;;;9.90;98.30;;;;;;4084223;29;20506;-83
2021/05/26 04:06:54;;;;;;;13.13;9.17;;;9.80;98.30;;;;;;4082077;29;20534;-84
2021/05/26 04:08:56;;;;;;;11.50;9.37;;;9.90;98.30;;;;;;4082058;29;20472;-84
2021/05/26 04:10:59;;;;;;;11.03;9.60;;;9.90;98.30;;;;;;4082654;29;20509;-84
2021/05/26 04:13:02;;;;;;;14.43;9.47;;;10.00;98.30;;;;;;4081180;29;20484;-84
2021/05/26 04:15:06;;;;;;;12.50;9.70;;;10.00;98.30;;;;;;4080874;29;20501;-85
2021/05/26 04:17:08;;;;;;;11.03;9.33;;;9.90;98.30;;;;;;4081271;29;20601;-85
2021/05/26 04:19:11;;;;;;;13.80;9.27;;;10.00;98.30;;;;;;4080961;29;20462;-84
2021/05/26 04:21:21;;;;;;;13.03;9.80;;;10.00;98.30;;;;;;4082437;29;20472;-84
2021/05/26 04:23:24;;;;;;;13.00;9.57;;;10.00;98.30;;;;;;4084030;29;20466;-84
2021/05/26 04:25:27;;;;;;;12.17;9.20;;;10.00;98.30;;;;;;4082255;29;20564;-84
2021/05/26 04:27:30;;;;;;;10.57;9.07;;;10.00;98.30;;;;;;4081851;29;20554;-84
2021/05/26 04:29:33;;;;;;;13.03;10.23;;;10.00;98.30;;;;;;4081805;29;21099;-84
2021/05/26 04:31:36;;;;;;;16.73;9.27;;;10.10;98.30;;;;;;4083370;29;20497;-84
2021/05/26 04:33:38;;;;;;;13.93;9.00;;;10.00;98.30;;;;;;4084604;29;20497;-84
2021/05/26 04:35:41;;;;;;;11.70;10.03;;;10.00;98.30;;;;;;4081660;29;20513;-84
2021/05/26 04:37:43;;;;;;;16.57;10.10;;;10.00;98.30;;;;;;4079908;29;20565;-85
2021/05/26 04:39:48;;;;;;;11.17;9.23;;;10.00;98.30;;;;;;4082810;29;20557;-83
2021/05/26 04:41:51;;;;;;;13.37;9.60;;;9.90;98.30;;;;;;4084195;29;20588;-84
2021/05/26 04:43:54;;;;;;;16.07;10.03;;;9.90;98.30;;;;;;4084360;29;20987;-84
2021/05/26 04:45:57;;;;;;;10.10;9.10;;;9.90;98.30;;;;;;4083997;29;20470;-84
2021/05/26 04:47:59;;;;;;;9.70;8.70;;;10.00;98.30;;;;;;4081701;29;20568;-84
2021/05/26 04:50:02;;;;;;;11.43;9.33;;;10.00;98.30;;;;;;4082322;29;20468;-85
2021/05/26 04:52:05;;;;;;;11.63;9.40;;;9.90;98.30;;;;;;4083785;29;20500;-83
2021/05/26 04:54:08;;;;;;;11.97;9.83;;;9.90;98.30;;;;;;4082508;29;21064;-84
2021/05/26 04:56:11;;;;;;;14.67;8.87;;;9.90;98.30;;;;;;4082987;29;20482;-84
2021/05/26 04:58:14;;;;;;;12.90;8.27;;;9.90;98.30;;;;;;4082203;29;20452;-84
2021/05/26 05:00:18;;;;;;;12.10;9.87;;;9.90;98.30;;;;;;4081234;29;20474;-84
2021/05/26 05:02:21;;;;;;;11.93;8.60;;;9.90;98.30;;;;;;4083546;29;20500;-83
2021/05/26 05:04:23;;;;;;;10.73;7.90;;;9.90;98.30;;;;;;4082982;29;20474;-83
2021/05/26 05:06:26;;;;;;;11.17;8.60;;;9.90;98.30;;;;;;4083666;29;20561;-84
2021/05/26 05:08:28;;;;;;;8.77;7.73;;;9.90;98.30;;;;;;4084443;29;20496;-83
2021/05/26 05:10:31;;;;;;;13.03;7.20;;;9.90;98.30;;;;;;4083951;29;20473;-84
2021/05/26 05:12:34;;;;;;;9.60;7.53;;;9.90;98.30;;;;;;4084620;29;20508;-84
2021/05/26 05:14:37;;;;;;;12.03;8.30;;;9.90;98.30;;;;;;4082660;29;20989;-84
2021/05/26 05:16:40;;;;;;;12.10;9.53;;;9.90;98.30;;;;;;4084332;29;20476;-84
2021/05/26 05:18:42;;;;;;;8.53;7.23;;;9.90;98.30;;;;;;4083862;29;20553;-84
2021/05/26 05:20:45;;;;;;;9.50;8.50;;;10.00;98.30;;;;;;4083918;29;20484;-83
2021/05/26 05:22:48;;;;;;;9.20;7.67;;;10.00;98.30;;;;;;4079874;29;20535;-84
2021/05/26 05:24:51;;;;;;;10.63;9.53;;;10.00;98.30;;;;;;4077497;29;20508;-84
2021/05/26 05:26:53;;;;;;;9.97;8.17;;;10.00;98.30;;;;;;4084818;29;20481;-83
2021/05/26 05:28:57;;;;;;;9.60;6.70;;;10.10;98.30;;;;;;4084077;29;20494;-84
2021/05/26 05:31:00;;;;;;;11.30;8.47;;;10.10;98.30;;;;;;4082680;29;20522;-84
2021/05/26 05:33:03;;;;;;;9.10;8.10;;;10.10;98.30;;;;;;4084342;29;20481;-83
2021/05/26 05:35:07;;;;;;;10.27;8.67;;;10.10;98.30;;;;;;4083871;29;20480;-83
2021/05/26 05:37:10;;;;;;;10.03;8.23;;;10.10;98.30;;;;;;4080413;29;20565;-84
2021/05/26 05:39:16;;;;;;;9.40;7.10;;;10.10;98.30;;;;;;4082211;29;20501;-85
2021/05/26 05:41:19;;;;;;;8.70;7.67;;;10.10;98.30;;;;;;4080202;29;20490;-84
2021/05/26 05:43:22;;;;;;;11.20;7.90;;;10.10;98.30;;;;;;4088260;29;20569;-84
2021/05/26 05:45:25;;;;;;;7.93;7.20;;;10.20;98.30;;;;;;4083444;29;20473;-84
2021/05/26 05:47:28;;;;;;;9.93;7.37;;;10.20;98.30;;;;;;4082675;29;20598;-84
2021/05/26 05:49:31;;;;;;;9.00;8.10;;;10.30;98.30;;;;;;4083395;29;20522;-85
2021/05/26 05:51:33;;;;;;;8.23;7.33;;;10.40;98.30;;;;;;4083240;29;20485;-84
2021/05/26 05:53:36;;;;;;;12.87;8.43;;;10.50;98.30;;;;;;4080573;29;20561;-84
2021/05/26 05:55:40;;;;;;;10.93;7.70;;;10.60;98.30;;;;;;4081560;29;20470;-84
2021/05/26 05:57:43;;;;;;;12.27;7.40;;;10.60;98.30;;;;;;4083264;29;20529;-84
2021/05/26 05:59:46;;;;;;;7.50;6.60;;;10.60;98.30;;;;;;4083033;29;20463;-84
2021/05/26 06:01:49;;;;;;;7.83;6.43;;;10.70;98.30;;;;;;4082387;29;20490;-84
2021/05/26 06:03:52;;;;;;;7.33;6.70;;;10.70;98.30;;;;;;4080419;29;20504;-84
2021/05/26 06:05:56;;;;;;;8.10;6.60;;;10.80;98.30;;;;;;4081244;29;20470;-85
2021/05/26 06:07:59;;;;;;;9.10;7.00;;;10.80;98.30;;;;;;4083101;29;20470;-85
2021/05/26 06:10:01;;;;;;;8.03;7.20;;;10.80;98.30;;;;;;4082302;29;20524;-85
2021/05/26 06:12:05;;;;;;;8.63;6.93;;;10.80;98.30;;;;;;4082868;29;20493;-84
2021/05/26 06:14:12;;;;;;;11.00;6.90;;;10.80;98.30;;;;;;4076587;29;20467;-84
2021/05/26 06:16:15;;;;;;;10.40;6.83;;;10.90;98.30;;;;;;4078990;29;20517;-84
2021/05/26 06:18:18;;;;;;;9.20;7.20;;;10.80;98.30;;;;;;4080896;29;20473;-83
2021/05/26 06:20:24;;;;;;;9.93;6.67;;;10.90;98.30;;;;;;4079305;29;20957;-84
2021/05/26 06:22:27;;;;;;;8.40;6.70;;;10.90;98.30;;;;;;4079410;29;20477;-83
2021/05/26 06:24:30;;;;;;;8.20;7.40;;;10.80;98.30;;;;;;4082463;29;20566;-84
2021/05/26 06:26:34;;;;;;;13.13;7.00;;;10.80;98.30;;;;;;4084263;29;20470;-85
2021/05/26 06:28:37;;;;;;;7.43;6.70;;;10.80;98.30;;;;;;4085462;29;20470;-84
2021/05/26 06:30:39;;;;;;;8.20;6.80;;;10.70;98.30;;;;;;4086693;29;20473;-84
2021/05/26 06:32:42;;;;;;;7.97;7.17;;;10.60;98.30;;;;;;4085588;29;20465;-84
2021/05/26 06:34:48;;;;;;;9.50;6.43;;;10.70;98.30;;;;;;4082443;29;20868;-83
2021/05/26 06:36:50;;;;;;;9.50;7.60;;;10.70;98.30;;;;;;4084540;29;20478;-81
2021/05/26 06:38:53;;;;;;;7.70;6.90;;;10.70;98.30;;;;;;4082585;29;20560;-80
2021/05/26 06:40:55;;;;;;;7.53;6.80;;;10.80;98.30;;;;;;4082588;29;20496;-80
2021/05/26 06:42:58;;;;;;;8.13;6.47;;;10.90;98.30;;;;;;4083656;29;20497;-83
2021/05/26 06:45:01;;;;;;;8.80;7.40;;;11.10;98.30;;;;;;4076517;29;20620;-81
2021/05/26 06:47:03;;;;;;;12.53;7.00;;;11.10;98.30;;;;;;4083326;29;20526;-81
2021/05/26 06:49:06;;;;;;;7.30;6.60;;;11.10;98.30;;;;;;4077039;29;20869;-81
2021/05/26 06:51:09;;;;;;;8.63;7.23;;;11.10;98.30;;;;;;4082742;29;20586;-82
2021/05/26 06:53:12;;;;;;;7.97;7.07;;;11.20;98.30;;;;;;4081381;29;20473;-81
2021/05/26 06:55:14;;;;;;;8.43;7.57;;;11.20;98.30;;;;;;4080521;29;20470;-82
2021/05/26 06:57:18;;;;;;;9.10;8.20;;;11.10;98.30;;;;;;4081117;29;20922;-81
2021/05/26 06:59:21;;;;;;;11.37;9.30;;;11.00;98.30;;;;;;4079965;29;20489;-81
2021/05/26 07:01:24;;;;;;;11.13;8.60;;;11.00;98.30;;;;;;4079946;29;20585;-83
2021/05/26 07:03:27;;;;;;;9.30;8.00;;;11.10;98.30;;;;;;4079834;29;20477;-81
2021/05/26 07:05:29;;;;;;;8.87;7.97;;;11.30;98.30;;;;;;4079349;29;20485;-81
2021/05/26 07:07:33;;;;;;;12.30;8.63;;;11.30;98.30;;;;;;4079611;29;20886;-81
2021/05/26 07:09:38;;;;;;;10.47;8.80;;;11.40;98.30;;;;;;4080116;29;20492;-81
2021/05/26 07:11:40;;;;;;;11.73;8.47;;;11.50;98.30;;;;;;4080284;29;20577;-82
2021/05/26 07:13:43;;;;;;;9.50;8.30;;;11.50;98.30;;;;;;4081286;29;20474;-81
2021/05/26 07:15:46;;;;;;;9.23;8.23;;;11.30;98.30;;;;;;4081303;29;20480;-81
2021/05/26 07:17:54;;;;;;;8.97;7.77;;;11.30;98.30;;;;;;4081636;29;20470;-81
2021/05/26 07:19:57;;;;;;;8.60;7.80;;;11.40;98.30;;;;;;4081089;29;20541;-81
2021/05/26 07:22:01;;;;;;;9.07;7.60;;;11.40;98.30;;;;;;4081430;29;20514;-82
2021/05/26 07:24:05;;;;;;;7.97;7.17;;;11.50;98.30;;;;;;4080645;29;20525;-81
2021/05/26 07:26:10;;;;;;;6.60;6.00;;;11.60;98.30;;;;;;4081180;29;21023;-81
2021/05/26 07:28:13;;;;;;;7.40;6.57;;;11.50;98.30;;;;;;4082587;29;20964;-82
2021/05/26 07:30:17;;;;;;;7.27;6.60;;;11.50;98.30;;;;;;4083783;29;20482;-82
2021/05/26 07:32:19;;;;;;;6.70;6.10;;;11.30;98.30;;;;;;4083712;29;20498;-82
2021/05/26 07:34:22;;;;;;;5.50;5.00;;;11.50;98.30;;;;;;4083360;29;20565;-81
2021/05/26 07:36:25;;;;;;;6.17;5.20;;;11.70;98.30;;;;;;4083748;29;20553;-81
2021/05/26 07:38:27;;;;;;;5.40;4.57;;;11.80;98.30;;;;;;4083636;29;20513;-81
2021/05/26 07:40:30;;;;;;;5.13;4.60;;;11.80;98.30;;;;;;4083845;29;20555;-81
2021/05/26 07:42:33;;;;;;;5.60;5.10;;;11.80;98.30;;;;;;4083880;29;20480;-82
2021/05/26 07:44:36;;;;;;;6.53;5.10;;;11.80;98.30;;;;;;4083128;29;20883;-82
2021/05/26 07:46:39;;;;;;;7.40;5.00;;;11.80;98.30;;;;;;4083396;29;20504;-83
2021/05/26 07:48:43;;;;;;;6.00;4.97;;;11.70;98.30;;;;;;4083008;29;20528;-82
2021/05/26 07:50:46;;;;;;;5.43;4.90;;;11.80;98.30;;;;;;4083542;29;20520;-83
2021/05/26 07:52:48;;;;;;;5.33;4.80;;;11.70;98.30;;;;;;4083337;29;20497;-83
2021/05/26 07:54:52;;;;;;;5.70;5.20;;;11.60;98.30;;;;;;4082935;29;20482;-83
2021/05/26 07:56:56;;;;;;;6.90;5.43;;;11.50;98.30;;;;;;4083464;29;20560;-83
2021/05/26 07:58:59;;;;;;;5.13;4.63;;;11.40;98.30;;;;;;4083059;29;20509;-83
2021/05/26 08:01:01;;;;;;;5.93;5.33;;;11.30;98.30;;;;;;4083122;29;20497;-82
2021/05/26 08:03:05;;;;;;;7.10;5.23;;;11.20;98.30;;;;;;4083574;29;20481;-82
2021/05/26 08:05:09;;;;;;;7.97;5.87;;;11.20;98.30;;;;;;4083305;29;20484;-83
2021/05/26 08:07:12;;;;;;;6.40;5.80;;;11.10;98.30;;;;;;4083166;29;20514;-83
2021/05/26 08:09:17;;;;;;;6.80;6.10;;;11.10;98.30;;;;;;4083538;29;20477;-83
2021/05/26 08:11:19;;;;;;;7.80;5.73;;;11.00;98.30;;;;;;4084072;29;20505;-82
2021/05/26 08:13:23;;;;;;;6.73;6.13;;;11.10;98.30;;;;;;4083546;29;20533;-83
2021/05/26 08:15:26;;;;;;;6.60;5.87;;;11.00;98.30;;;;;;4082387;29;20784;-82
2021/05/26 08:17:28;;;;;;;6.73;5.33;;;10.90;98.30;;;;;;4083445;29;20513;-82
2021/05/26 08:19:34;;;;;;;6.43;5.83;;;10.90;98.30;;;;;;4083312;29;20470;-83
2021/05/26 08:21:38;;;;;;;5.97;5.40;;;10.80;98.30;;;;;;4083322;29;20843;-83
2021/05/26 08:23:40;;;;;;;7.90;6.63;;;10.90;98.30;;;;;;4083391;29;20470;-83
2021/05/26 08:25:43;;;;;;;9.50;7.77;;;10.90;98.30;;;;;;4082014;29;20569;-83
2021/05/26 08:27:46;;;;;;;7.57;6.77;;;10.80;98.30;;;;;;4083347;29;20486;-83
2021/05/26 08:29:49;;;;;;;9.23;6.77;;;10.80;98.30;;;;;;4083510;29;20922;-83
2021/05/26 08:31:56;;;;;;;8.93;7.47;;;10.70;98.30;;;;;;4087971;29;20841;-83
2021/05/26 08:33:59;;;;;;;8.30;7.27;;;10.60;98.30;;;;;;4091675;29;21026;-83
2021/05/26 08:36:02;;;;;;;8.00;7.20;;;10.70;98.30;;;;;;4091159;29;20505;-83
2021/05/26 08:38:04;;;;;;;9.20;8.30;;;10.70;98.30;;;;;;4091020;29;20552;-83
2021/05/26 08:40:11;;;;;;;9.47;8.47;;;10.80;98.30;;;;;;4090936;29;20470;-82
2021/05/26 08:42:15;;;;;;;13.37;8.53;;;10.90;98.30;;;;;;4089774;29;20588;-82
2021/05/26 08:44:19;;;;;;;12.60;10.57;;;11.00;98.30;;;;;;4088038;29;20458;-82
2021/05/26 08:46:23;;;;;;;14.20;10.07;;;11.10;98.30;;;;;;4090900;29;21017;-83
2021/05/26 08:48:29;;;;;;;14.10;11.70;;;11.30;98.30;;;;;;4089876;29;20482;-83
2021/05/26 08:50:33;;;;;;;12.73;11.20;;;11.40;98.30;;;;;;4090017;29;20534;-83
2021/05/26 08:52:35;;;;;;;15.20;12.13;;;11.40;98.30;;;;;;4089415;29;20466;-82
2021/05/26 08:54:39;;;;;;;14.80;12.23;;;11.40;98.30;;;;;;4087418;29;20513;-83
2021/05/26 08:56:44;;;;;;;13.23;11.83;;;11.60;98.30;;;;;;4088491;29;20509;-84
2021/05/26 08:58:46;;;;;;;15.80;13.10;;;11.80;98.30;;;;;;4089794;29;20873;-84
2021/05/26 09:00:49;;;;;;;14.30;12.57;;;11.70;98.30;;;;;;4090415;29;20567;-83
2021/05/26 09:02:52;;;;;;;19.60;12.97;;;11.80;98.30;;;;;;4090770;29;20508;-82
2021/05/26 09:04:55;;;;;;;17.97;12.70;;;11.70;98.30;;;;;;4090326;29;20553;-83
2021/05/26 09:07:14;;;;;;;19.77;14.53;;;11.70;98.30;;;;;;4090976;29;20578;-83
2021/05/26 09:09:20;;;;;;;15.60;11.87;;;11.70;98.30;;;;;;4088892;29;20568;-83
2021/05/26 09:11:30;;;;;;;18.10;14.67;;;11.80;98.30;;;;;;4086945;29;20887;-82
2021/05/26 09:13:35;;;;;;;16.60;13.50;;;11.80;98.30;;;;;;4086400;29;20470;-82
2021/05/26 09:15:40;;;;;;;19.90;14.00;;;11.70;98.30;;;;;;4086198;29;20512;-82
2021/05/26 09:17:43;;;;;;;19.43;15.07;;;11.70;98.30;;;;;;4086476;29;20474;-82
2021/05/26 09:19:47;;;;;;;22.90;14.83;;;11.70;98.30;;;;;;4086690;29;20462;-83
2021/05/26 09:21:52;;;;;;;17.00;13.80;;;11.80;98.30;;;;;;4087760;29;20561;-83
2021/05/26 09:23:55;;;;;;;14.40;12.53;;;12.00;98.30;;;;;;4086327;29;20501;-82
2021/05/26 09:26:00;;;;;;;17.70;15.10;;;12.10;98.30;;;;;;4087047;29;20492;-82
2021/05/26 09:28:27;;;;;;;13.57;12.17;;;12.30;98.30;;;;;;4087919;29;21041;-82
2021/05/26 09:30:31;;;;;;;14.93;12.13;;;12.70;98.30;;;;;;4087373;29;20494;-83
2021/05/26 09:32:36;;;;;;;13.57;11.90;;;12.70;98.30;;;;;;4086593;29;20501;-82
2021/05/26 09:34:40;;;;;;;14.30;11.87;;;12.80;98.30;;;;;;4087090;29;20502;-83
2021/05/26 09:36:44;;;;;;;13.70;12.13;;;12.90;98.30;;;;;;4086607;29;20470;-83
2021/05/26 09:38:49;;;;;;;11.33;10.03;;;12.80;98.30;;;;;;4088107;29;20534;-82
2021/05/26 09:40:52;;;;;;;12.53;10.20;;;12.60;98.30;;;;;;4087171;29;20558;-84
2021/05/26 09:42:55;;;;;;;14.90;11.37;;;12.60;98.30;;;;;;4087629;29;20478;-82
2021/05/26 09:45:18;;;;;;;13.60;12.20;;;12.60;98.30;;;;;;4087026;29;21031;-83
2021/05/26 09:47:34;;;;;;;16.77;10.03;;;12.60;98.30;;;;;;4087710;29;20533;-82
2021/05/26 09:49:37;;;;;;;12.57;8.40;;;12.50;98.30;;;;;;4087396;29;20470;-83
2021/05/26 09:51:43;;;;;;;12.20;10.10;;;12.60;98.30;;;;;;4087881;29;20522;-84
2021/05/26 09:53:46;;;;;;;15.00;10.87;;;12.70;98.30;;;;;;4087522;29;20561;-84
2021/05/26 09:55:49;;;;;;;12.33;9.23;;;12.80;98.30;;;;;;4086978;29;20477;-82
2021/05/26 09:57:53;;;;;;;10.23;9.20;;;12.90;98.30;;;;;;4088153;29;20458;-82
2021/05/26 09:59:55;;;;;;;12.23;8.50;;;12.90;98.30;;;;;;4087404;29;20510;-83
2021/05/26 10:01:58;;;;;;;10.60;9.50;;;13.00;98.30;;;;;;4088711;29;20938;-84
2021/05/26 10:04:01;;;;;;;10.47;8.83;;;13.10;98.30;;;;;;4088097;29;20948;-84
2021/05/26 10:06:04;;;;;;;10.17;9.03;;;12.90;98.30;;;;;;4088964;29;20540;-82
2021/05/26 10:08:12;;;;;;;10.17;8.80;;;12.90;98.30;;;;;;4089395;29;20516;-83
2021/05/26 10:10:15;;;;;;;12.77;7.67;;;12.90;98.30;;;;;;4088404;29;20465;-82
2021/05/26 10:12:18;;;;;;;10.97;7.80;;;12.80;98.30;;;;;;4089178;29;20526;-83
2021/05/26 10:14:22;;;;;;;12.30;7.83;;;12.80;98.30;;;;;;4089213;29;20983;-83
2021/05/26 10:16:32;;;;;;;9.53;8.60;;;12.80;98.30;;;;;;4089707;29;20565;-83
2021/05/26 10:18:36;;;;;;;8.93;8.13;;;12.70;98.30;;;;;;4090831;29;20469;-84
2021/05/26 10:20:43;;;;;;;9.07;7.60;;;12.80;98.30;;;;;;4087318;29;20537;-83
2021/05/26 10:22:47;;;;;;;9.20;6.93;;;13.20;98.30;;;;;;4086948;29;21055;-82
2021/05/26 10:24:51;;;;;;;7.37;6.67;;;13.20;98.30;;;;;;4086131;29;20493;-82
2021/05/26 10:26:56;;;;;;;8.20;7.40;;;13.00;98.30;;;;;;4087453;29;20505;-82
2021/05/26 10:29:19;;;;;;;9.67;8.30;;;12.80;98.30;;;;;;4086660;29;20498;-83
2021/05/26 10:31:36;;;;;;;12.07;8.07;;;12.90;98.30;;;;;;4086162;29;20875;-82
2021/05/26 10:33:52;;;;;;;9.23;8.33;;;13.00;98.30;;;;;;4087138;29;20553;-83
2021/05/26 10:35:57;;;;;;;10.13;8.40;;;13.00;98.30;;;;;;4086950;29;20660;-82
2021/05/26 10:38:04;;;;;;;10.73;8.07;;;12.80;98.30;;;;;;4085278;29;20482;-83
2021/05/26 10:40:49;;;;;;;8.97;7.63;;;12.80;98.30;;;;;;4087303;29;20462;-82
2021/05/26 10:42:53;;;;;;;10.50;7.47;;;12.70;98.30;;;;;;4088116;29;20474;-83
2021/05/26 10:45:06;;;;;;;7.20;5.93;;;12.30;98.30;;;;;;4085789;29;20470;-82